Time,TemperatureF,DewpointF,PressureIn,WindDirection,WindDirectionDegrees,WindSpeedMPH,WindSpeedGustMPH,Humidity,HourlyPrecipIn,Conditions,Clouds,dailyrainin,SoftwareType,DateUTC
2013-08-01 00:03:00,80.0,79.0,30.04,WSW,254,0.0,0.0,97,0.00,,,0.00,,2013-08-01 04:03:00,
2013-08-01 00:13:00,80.0,79.0,30.04,WSW,254,0.0,0.0,97,0.00,,,0.00,,2013-08-01 04:13:00,
2013-08-01 00:22:00,80.0,79.0,30.04,WSW,254,0.0,0.0,97,0.00,,,0.00,,2013-08-01 04:22:00,
2013-08-01 00:33:00,80.0,79.0,30.04,WSW,254,0.0,0.0,97,0.00,,,0.00,,2013-08-01 04:33:00,
2013-08-01 01:03:00,81.0,80.0,30.03,WSW,254,0.0,0.0,98,0.00,,,0.00,,2013-08-01 05:03:00,
2013-08-01 01:13:00,81.0,80.0,30.03,WSW,254,0.0,0.0,98,0.00,,,0.00,,2013-08-01 05:13:00,
2013-08-01 01:33:00,80.0,80.0,30.02,WSW,254,0.0,0.0,99,0.00,,,0.00,,2013-08-01 05:33:00,
2013-08-01 01:43:00,80.0,80.0,30.01,WSW,254,0.0,2.0,99,0.00,,,0.00,,2013-08-01 05:43:00,
2013-08-01 01:53:00,80.0,80.0,30.01,WSW,254,0.0,2.0,99,0.00,,,0.00,,2013-08-01 05:53:00,
2013-08-01 02:02:00,80.0,80.0,30.01,WSW,254,0.0,5.0,99,0.00,,,0.00,,2013-08-01 06:02:00,
2013-08-01 02:23:00,80.0,80.0,30.00,ENE,67,0.0,0.0,99,0.00,,,0.00,,2013-08-01 06:23:00,
2013-08-01 02:43:00,80.0,80.0,29.99,ENE,67,0.0,0.0,99,0.00,,,0.00,,2013-08-01 06:43:00,
2013-08-01 02:52:00,80.0,80.0,29.98,ENE,67,0.0,0.0,99,0.00,,,0.00,,2013-08-01 06:52:00,
2013-08-01 03:02:00,80.0,80.0,29.98,ENE,67,0.0,0.0,99,0.00,,,0.00,,2013-08-01 07:02:00,
2013-08-01 03:12:00,80.0,80.0,29.98,ENE,67,0.0,0.0,99,0.00,,,0.00,,2013-08-01 07:12:00,
2013-08-01 03:23:00,80.0,80.0,29.98,ENE,67,0.0,0.0,99,0.00,,,0.00,,2013-08-01 07:23:00,
2013-08-01 03:32:00,80.0,80.0,29.98,ENE,67,0.0,0.0,99,0.00,,,0.00,,2013-08-01 07:32:00,
2013-08-01 03:55:00,80.0,80.0,29.96,ENE,67,0.0,0.0,99,0.00,,,0.00,,2013-08-01 07:55:00,
2013-08-01 04:08:00,80.0,80.0,29.96,ENE,67,0.0,0.0,99,0.00,,,0.00,,2013-08-01 08:08:00,
2013-08-01 04:16:00,80.0,80.0,29.96,ENE,67,0.0,0.0,99,0.00,,,0.00,,2013-08-01 08:16:00,
2013-08-01 04:27:00,80.0,80.0,29.96,ENE,67,0.0,0.0,99,0.00,,,0.00,,2013-08-01 08:27:00,
2013-08-01 04:46:00,80.0,80.0,29.96,ENE,67,0.0,0.0,99,0.00,,,0.00,,2013-08-01 08:46:00,
2013-08-01 05:00:00,80.0,80.0,29.96,ENE,67,0.0,0.0,99,0.00,,,0.00,,2013-08-01 09:00:00,
2013-08-01 05:59:00,79.0,79.0,29.96,North,358,0.0,0.0,99,0.00,,,0.00,,2013-08-01 09:59:00,
2013-08-01 06:22:00,79.0,79.0,29.97,North,358,0.0,0.0,99,0.00,,,0.00,,2013-08-01 10:22:00,
2013-08-01 06:44:00,79.0,79.0,29.97,North,358,0.0,0.0,99,0.00,,,0.00,,2013-08-01 10:44:00,
2013-08-01 06:55:00,79.0,79.0,29.97,North,358,0.0,0.0,99,0.00,,,0.00,,2013-08-01 10:55:00,
2013-08-01 07:48:00,79.0,79.0,29.99,North,358,0.0,0.0,99,0.00,,,0.00,,2013-08-01 11:48:00,
2013-08-01 08:14:00,79.0,79.0,30.00,North,358,0.0,0.0,99,0.00,,,0.00,,2013-08-01 12:14:00,
2013-08-01 08:22:00,79.0,79.0,30.00,North,358,0.0,0.0,99,0.00,,,0.00,,2013-08-01 12:22:00,
2013-08-01 08:33:00,80.0,80.0,30.01,North,358,0.0,0.0,99,0.00,,,0.00,,2013-08-01 12:33:00,
2013-08-01 08:34:00,79.0,79.0,30.00,North,358,0.0,0.0,99,0.00,,,0.00,,2013-08-01 12:34:00,
2013-08-01 08:39:00,79.0,79.0,30.00,North,358,0.0,0.0,99,0.00,,,0.00,,2013-08-01 12:39:00,
2013-08-01 08:54:00,79.0,79.0,30.00,North,358,0.0,0.0,99,0.00,,,0.00,,2013-08-01 12:54:00,
2013-08-01 09:07:00,80.0,80.0,30.01,North,358,0.0,0.0,99,0.00,,,0.00,,2013-08-01 13:07:00,
2013-08-01 11:16:00,83.0,82.0,30.01,NW,306,0.0,7.0,98,0.00,,,0.00,,2013-08-01 15:16:00,
2013-08-01 11:23:00,83.0,82.0,30.01,NW,306,0.0,0.0,98,0.00,,,0.00,,2013-08-01 15:23:00,
2013-08-01 11:29:00,83.0,81.0,30.01,NW,306,0.0,0.0,95,0.00,,,0.00,,2013-08-01 15:29:00,
2013-08-01 11:32:00,83.0,82.0,30.01,NW,306,0.0,0.0,98,0.00,,,0.00,,2013-08-01 15:32:00,
2013-08-01 12:03:00,83.0,81.0,30.01,NW,306,0.0,0.0,95,0.00,,,0.00,,2013-08-01 16:03:00,
2013-08-01 12:09:00,83.0,81.0,30.01,NW,306,0.0,0.0,95,0.00,,,0.00,,2013-08-01 16:09:00,
2013-08-01 12:20:00,83.0,81.0,30.01,NW,306,0.0,0.0,95,0.00,,,0.00,,2013-08-01 16:20:00,
2013-08-01 13:17:00,85.0,83.0,30.01,NW,306,0.0,0.0,93,0.00,,,0.00,,2013-08-01 17:17:00,
2013-08-01 14:53:00,83.0,81.0,29.98,NE,54,0.0,0.0,94,0.00,,,0.00,,2013-08-01 18:53:00,
2013-08-01 15:23:00,83.0,81.0,29.98,NE,54,0.0,0.0,94,0.00,,,0.00,,2013-08-01 19:23:00,
2013-08-01 15:42:00,83.0,81.0,29.98,NE,54,0.0,0.0,94,0.00,,,0.00,,2013-08-01 19:42:00,
2013-08-01 17:33:00,84.0,83.0,29.94,North,358,0.0,0.0,98,0.00,,,0.00,,2013-08-01 21:33:00,
2013-08-01 17:53:00,84.0,83.0,29.94,North,358,0.0,0.0,98,0.00,,,0.00,,2013-08-01 21:53:00,
2013-08-01 18:10:00,84.0,83.0,29.94,North,358,0.0,0.0,98,0.00,,,0.00,,2013-08-01 22:10:00,
2013-08-01 18:17:00,84.0,83.0,29.94,North,358,0.0,0.0,98,0.00,,,0.00,,2013-08-01 22:17:00,
2013-08-01 18:23:00,84.0,83.0,29.94,North,358,0.0,0.0,98,0.00,,,0.00,,2013-08-01 22:23:00,
2013-08-01 19:21:00,84.0,82.0,29.95,SE,133,5.0,9.0,95,0.00,,,0.00,,2013-08-01 23:21:00,
2013-08-01 20:09:00,84.0,82.0,29.95,SE,133,5.0,9.0,95,0.00,,,0.00,,2013-08-02 00:09:00,
2013-08-01 20:19:00,84.0,82.0,29.95,SE,133,5.0,9.0,95,0.00,,,0.00,,2013-08-02 00:19:00,
2013-08-01 22:28:00,80.0,79.0,29.98,NW,312,9.0,16.0,98,0.00,,,0.00,,2013-08-02 02:28:00,
2013-08-01 22:35:00,79.0,79.0,29.98,West,267,0.0,14.0,99,0.00,,,0.00,,2013-08-02 02:35:00,
2013-08-01 22:45:00,78.0,78.0,29.97,West,267,0.0,0.0,99,0.00,,,0.00,,2013-08-02 02:45:00,
2013-08-01 22:52:00,77.0,77.0,29.96,West,267,0.0,0.0,99,0.00,,,0.00,,2013-08-02 02:52:00,
2013-08-01 23:23:00,77.0,77.0,29.96,West,267,0.0,0.0,99,0.00,,,0.00,,2013-08-02 03:23:00,
2013-08-01 23:38:00,77.0,77.0,29.97,West,267,0.0,0.0,99,0.00,,,0.00,,2013-08-02 03:38:00,
2013-08-01 23:48:00,77.0,77.0,29.98,West,267,0.0,0.0,99,0.00,,,0.00,,2013-08-02 03:48:00,
2013-08-01 23:56:00,77.0,77.0,29.98,West,267,0.0,0.0,99,0.00,,,0.00,,2013-08-02 03:56:00,